Bookmark and Share
Track history (hours):
 

Sea Dolphin C

Last reported at 2014-Apr-18 10:31 UTC. Time now 2014-Apr-24 00:04 UTC.
Position N 36°58' E 012°06'.

Length 181 m; draft 10 m.

Type: Cargo ship. MMSI: 538004513.

NotesDate/timePositionNaut miles runAvg speedWind from/ knotsBaromVisibWave heightAir tempDewpointWater temp
2014-Apr-18 10:31N 36°58' E 012°06'1312.3
2014-Apr-18 09:30N 37°04' E 011°52'1112.2
2014-Apr-18 08:33N 37°09' E 011°39'1212.4
2014-Apr-18 07:33N 37°15' E 011°26'33211.9
2014-Apr-17 03:32N 37°11' E 004°29'1211.8
2014-Apr-17 02:33N 37°10' E 004°14'1411.8
2014-Apr-17 01:24N 37°09' E 003°57'1112.0
2014-Apr-17 00:30N 37°09' E 003°44'1212.7
2014-Apr-16 23:33N 37°07' E 003°29'1211.5
2014-Apr-16 22:30N 37°06' E 003°14'1213.0
2014-Apr-16 21:34N 37°04' E 002°58'1313.0
2014-Apr-16 20:34N 37°02' E 002°42'1212.3
2014-Apr-16 19:33N 36°60' E 002°27'1312.1
2014-Apr-16 18:29N 36°57' E 002°11'35712.8
2014-Apr-15 14:32N 36°01' W 005°07'15 7.5
2014-Apr-15 12:34N 35°58' W 005°25'  
2014-Apr-12 13:29N 37°28' W 023°45'1112.0
2014-Apr-12 12:33N 37°28' W 023°59'1212.0
2014-Apr-12 11:33N 37°29' W 024°14'1212.0
2014-Apr-12 10:33N 37°29' W 024°29'1211.9
2014-Apr-12 09:33N 37°30' W 024°44'1211.8
2014-Apr-12 08:33N 37°30' W 024°59'1211.5
2014-Apr-12 07:33N 37°30' W 025°14'1211.9
2014-Apr-12 06:33N 37°30' W 025°29'1212.0
2014-Apr-12 05:33N 37°30' W 025°44'1212.4
2014-Apr-12 04:34N 37°29' W 025°59'1312.7
2014-Apr-12 03:33N 37°29' W 026°15'1313.0
2014-Apr-12 02:33N 37°29' W 026°32'1312.6
2014-Apr-12 01:33N 37°28' W 026°48'1312.6
2014-Apr-12 00:33N 37°28' W 027°04'1212.2
2014-Apr-11 23:34N 37°28' W 027°19'1212.3
2014-Apr-11 22:33N 37°27' W 027°34'1212.1
2014-Apr-11 21:33N 37°27' W 027°50'1212.1
2014-Apr-11 20:33N 37°27' W 028°05'1211.9
2014-Apr-11 19:33N 37°27' W 028°20'1212.2
2014-Apr-11 18:33N 37°27' W 028°35'1212.0
2014-Apr-11 17:33N 37°26' W 028°50'1211.9
2014-Apr-11 16:33N 37°26' W 029°05'1211.9
2014-Apr-11 15:33N 37°25' W 029°20'1211.8
2014-Apr-11 14:33N 37°25' W 029°35'1211.8
2014-Apr-11 13:33N 37°25' W 029°50'1412.0
2014-Apr-11 12:25N 37°24' W 030°07'1112.4
2014-Apr-11 11:33N 37°24' W 030°21'1312.5
2014-Apr-11 10:32N 37°23' W 030°37'1812.7
2014-Apr-11 09:05N 37°22' W 030°60'712.4
2014-Apr-11 08:32N 37°21' W 031°08'  

Dump ship's entire track history

sailing weather and tide predictions

Sea Dolphin C — V7XL9 — position and weather